Date,TemperatureHighF,TemperatureAvgF,TemperatureLowF,DewpointHighF,DewpointAvgF,DewpointLowF,HumidityHigh,HumidityAvg,HumidityLow,PressureMaxIn,PressureMinIn,WindSpeedMaxMPH,WindSpeedAvgMPH,GustSpeedMaxMPH,PrecipitationSumIn
2013-1-1,66.9,55.3,46.6,50.4,38.3,29.1,85,55,33,18.32,18.32,6,1,7,0.00
2013-1-2,75.7,56.7,53.1,55.6,46.3,31.2,93,72,22,18.32,18.32,8,1,8,0.12
2013-1-3,53.8,48.8,43.2,38.8,34.2,25.9,72,58,39,18.32,18.32,9,1,9,0.00
2013-1-4,69.1,44.7,34.3,37.0,26.2,11.5,90,54,17,18.32,18.32,11,1,11,0.00
2013-1-5,66.6,43.6,29.1,23.6,15.5,10.2,66,35,15,18.32,18.32,6,0,6,0.00
2013-1-6,54.1,48.2,41.9,39.2,29.5,17.3,79,49,28,18.32,18.32,11,2,13,0.00
2013-1-7,72.1,44.5,34.3,33.8,24.3,14.3,86,51,14,18.32,18.32,13,1,13,0.59
2013-1-8,69.8,46.3,34.5,33.9,29.2,23.6,74,53,23,18.32,18.32,7,1,8,0.00
2013-1-9,72.9,56.4,43.3,49.7,40.4,34.1,84,58,31,18.32,18.32,6,1,6,0.00
2013-1-10,93.9,63.1,49.8,58.5,45.9,27.9,91,62,12,18.32,18.32,9,1,10,0.00
2013-1-11,84.2,67.2,61.7,65.5,55.6,43.4,92,70,26,18.32,18.32,10,1,10,0.59
2013-1-12,93.9,68.5,58.6,60.5,49.7,35.0,91,58,14,18.32,18.32,13,1,13,0.00
2013-1-13,85.3,68.4,61.9,57.6,51.1,43.5,82,57,27,18.32,18.32,15,2,15,0.59
2013-1-14,88.2,69.3,61.5,57.2,51.2,38.2,82,56,19,18.32,18.32,15,2,15,0.59
2013-1-15,84.6,68.6,60.3,56.1,49.4,38.4,85,53,21,18.32,18.32,12,1,12,0.00
2013-1-16,85.1,68.6,63.5,62.4,52.7,44.5,89,59,29,18.32,18.32,13,2,13,0.04
2013-1-17,71.6,57.7,42.8,64.2,49.1,26.1,91,74,40,18.32,18.32,20,4,20,0.43
2013-1-18,77.7,44.5,34.5,35.7,23.0,7.1,89,50,13,18.32,18.32,12,2,12,0.59
2013-1-19,77.0,45.7,29.7,29.0,19.9,12.9,68,40,13,18.32,18.32,7,1,8,0.00
2013-1-20,80.2,53.2,40.3,30.8,23.6,15.8,61,35,13,18.32,18.32,11,2,11,0.59
2013-1-21,71.2,51.7,38.7,26.3,18.8,6.4,59,30,14,18.32,18.32,13,3,15,0.00
2013-1-22,63.9,43.3,35.1,16.8,5.4,1.0,25,21,16,18.32,18.32,15,4,15,0.00
2013-1-23,68.9,43.6,30.6,23.6,9.1,-0.9,38,24,15,18.32,18.32,17,4,17,0.59
2013-1-24,72.7,52.3,35.4,32.4,19.6,0.4,54,30,14,18.32,18.32,17,4,17,0.59
2013-1-25,40.8,35.6,28.9,12.5,3.0,-6.0,32,25,20,18.32,18.32,9,1,9,0.00
2013-1-26,77.0,48.0,37.9,25.4,20.5,12.4,55,35,13,18.32,18.32,8,1,9,0.59
2013-1-27,83.1,46.9,33.8,23.6,17.7,11.3,59,34,12,18.32,18.32,8,2,9,0.00
2013-1-28,71.2,50.4,42.6,38.8,27.9,14.0,75,43,23,18.32,18.32,6,1,6,0.59
2013-1-29,53.6,46.4,43.9,47.3,40.5,38.3,84,80,75,18.32,18.32,5,0,5,0.00
2013-2-1,42.1,36.7,32.0,1.7,0.3,-1.6,23,21,18,18.32,18.32,8,1,8,0.00
2013-2-2,79.3,42.8,24.8,28.1,9.9,-2.8,49,28,12,18.32,18.32,10,1,10,0.00
2013-2-3,71.4,49.2,38.3,33.2,21.3,9.7,73,38,14,18.32,18.32,21,4,21,0.00
2013-2-4,45.1,39.3,36.7,20.2,16.2,13.2,48,39,28,18.32,18.32,8,2,8,0.00
2013-2-7,49.3,47.6,45.9,46.9,45.8,44.1,94,93,91,18.32,18.32,13,5,13,1.46
2013-2-8,64.8,51.2,44.6,44.1,38.6,33.3,94,65,33,18.32,18.32,14,2,14,0.00
2013-2-9,92.1,45.5,33.3,37.4,26.5,12.4,88,55,10,30.32,18.32,9,1,9,0.00
2013-2-10,80.1,54.4,39.9,52.3,31.0,17.5,82,44,20,30.41,30.14,10,2,10,0.24
2013-2-11,68.5,60.8,55.9,58.5,54.5,50.5,92,81,58,30.23,30.08,11,2,11,1.18
2013-2-12,68.7,56.1,48.9,53.0,41.4,23.4,91,64,20,30.14,29.91,8,1,8,0.75
2013-2-13,59.2,51.9,46.6,52.2,43.3,30.1,90,74,45,29.93,29.76,17,2,17,0.08
2013-2-14,57.0,45.3,36.9,33.9,29.0,21.4,80,56,27,30.11,29.93,9,1,9,0.00
2013-2-15,89.2,49.3,33.4,43.0,28.3,14.1,91,57,10,30.14,29.99,8,1,9,0.00
2013-2-16,61.7,43.3,32.5,38.1,18.9,-1.1,86,42,17,30.11,29.88,24,3,24,0.12
2013-2-17,61.7,37.5,27.3,15.1,3.7,-1.1,32,24,16,30.32,30.11,17,4,17,0.00
2013-2-18,79.3,43.9,26.8,23.1,11.4,3.4,57,29,13,30.41,30.26,8,1,9,0.00
2013-2-19,64.8,46.4,37.6,45.3,28.7,12.4,84,53,27,30.26,29.99,13,2,13,0.24
2013-2-20,79.3,47.0,31.5,22.7,10.7,5.3,42,24,13,30.20,30.08,13,2,13,0.00
2013-2-21,91.9,51.7,33.8,26.3,14.9,5.0,46,25,9,30.23,30.05,6,1,6,0.00
2013-2-22,53.8,45.4,41.2,41.9,35.6,19.4,92,72,28,30.20,30.11,10,2,10,0.79
2013-2-23,47.8,44.5,40.5,45.0,42.0,38.6,94,91,84,30.11,29.88,0,0,0,0.67
2013-2-24,87.1,55.6,46.2,45.8,33.2,14.6,92,54,11,30.02,29.91,10,1,10,0.00
2013-2-25,53.4,46.9,41.7,35.4,25.4,16.6,74,45,26,30.11,29.93,11,2,14,0.00
2013-2-26,55.0,46.4,39.9,49.1,42.0,34.4,93,85,68,29.96,29.61,11,2,11,1.18
2013-2-27,57.0,44.2,40.1,42.3,29.2,21.6,86,56,25,29.91,29.79,14,2,14,0.00
2013-2-28,66.9,47.8,39.2,29.4,19.9,13.2,50,34,16,29.93,29.82,19,4,19,0.00
2013-3-1,66.6,42.7,32.0,19.0,16.2,12.2,54,36,16,29.96,29.85,13,3,13,0.00
2013-3-2,60.1,40.2,34.5,30.6,19.9,11.7,58,44,27,29.91,29.82,15,3,15,0.00
2013-3-3,63.7,39.8,32.0,16.7,10.6,3.2,51,31,16,30.02,29.88,15,4,15,0.00
2013-3-4,77.5,44.7,26.4,21.5,12.8,6.6,51,30,13,30.79,30.02,9,2,10,0.00
2013-3-5,71.4,54.7,40.5,55.7,30.5,16.2,86,41,26,31.62,30.70,25,4,25,0.28
2013-3-6,59.7,42.7,35.4,21.6,12.9,6.1,50,30,17,31.62,31.62,24,7,25,0.00
2013-3-7,75.6,45.0,29.7,26.8,19.9,12.1,76,42,13,31.62,30.17,12,1,12,0.00
2013-3-8,75.7,47.8,33.4,26.8,17.8,10.4,59,33,13,31.62,30.32,11,2,13,0.00
2013-3-9,84.9,51.6,34.7,24.9,19.1,13.4,59,31,11,31.62,27.22,8,1,8,0.00
2013-3-10,82.4,58.2,43.7,39.4,28.5,23.1,56,35,14,0.00,40.00,6,2,8,0.00
2013-3-11,72.5,60.4,48.4,47.2,37.0,31.6,57,43,24,18.33,18.33,14,3,14,0.00
2013-3-12,79.5,60.6,50.9,57.7,37.2,15.1,90,50,14,18.33,18.33,15,3,15,0.24
2013-3-13,70.0,52.1,40.3,21.7,15.6,5.4,45,25,15,18.33,18.33,26,5,26,0.00
2013-3-14,66.0,44.8,31.8,16.4,10.3,4.4,42,25,16,18.33,18.33,13,3,13,0.00
2013-3-15,82.9,55.7,35.4,25.2,16.4,5.8,42,22,12,18.33,18.33,15,3,17,0.00
2013-3-16,86.4,66.6,54.5,30.5,25.4,18.5,38,23,11,18.33,18.33,17,4,18,0.00
2013-3-17,78.6,66.0,56.7,45.7,35.8,26.6,56,34,18,18.33,18.33,14,4,14,0.00
2013-3-18,78.8,61.4,48.7,53.7,46.0,40.7,93,59,29,18.33,18.33,32,2,32,0.79
2013-3-19,80.8,58.7,49.1,50.0,33.2,11.3,95,52,12,18.33,18.33,16,3,16,0.04
2013-3-20,68.0,54.1,43.7,18.7,13.2,7.9,29,20,15,18.33,18.33,11,1,11,0.00
2013-3-21,62.1,46.4,37.2,14.9,9.2,3.6,35,22,16,18.33,18.33,17,5,18,0.00
2013-3-22,58.6,45.0,35.6,22.4,9.5,2.0,36,23,17,18.33,18.33,7,1,7,0.79
2013-3-23,59.5,50.0,44.6,48.3,35.1,19.2,85,59,31,41.51,18.33,10,1,10,0.35
2013-3-24,51.1,49.2,47.1,49.4,45.4,39.8,94,87,71,41.48,40.00,0,0,0,1.77
2013-3-25,56.3,45.2,37.9,45.2,16.2,4.5,91,34,18,41.63,40.00,22,6,22,0.00
2013-3-26,52.2,40.9,32.7,15.2,12.0,8.6,45,31,21,41.63,40.00,17,3,17,0.00
2013-3-27,62.4,44.1,29.7,17.7,14.5,9.1,59,33,16,41.84,29.94,13,3,14,0.00
2013-3-28,68.9,48.6,32.2,20.2,15.0,10.9,56,28,15,29.94,29.94,14,2,14,0.79
2013-3-29,78.3,54.2,35.6,23.0,16.8,12.4,44,25,13,29.94,29.94,10,1,10,0.00
2013-3-30,79.3,62.7,50.2,33.9,27.5,18.0,51,28,15,29.94,29.94,10,2,12,0.00
2013-3-31,81.0,66.9,59.5,55.8,41.6,30.8,74,42,17,29.94,29.94,17,4,22,0.04
2013-4-1,80.6,66.4,59.5,59.2,41.9,15.9,92,52,12,29.94,29.94,15,2,15,0.35
2013-4-2,78.4,61.8,47.7,34.1,25.4,17.4,58,28,13,29.94,29.94,15,3,15,0.00
2013-4-3,71.2,58.5,47.3,31.1,19.8,14.4,42,23,14,29.94,29.94,10,2,10,0.79
2013-4-4,53.6,46.5,41.5,43.5,38.8,26.8,94,77,36,29.94,29.94,12,2,14,0.87
2013-4-5,65.7,49.8,39.0,41.7,35.4,28.3,94,62,28,29.94,29.94,12,1,13,0.00
2013-4-6,84.4,58.5,39.6,46.5,30.2,15.8,92,48,11,29.94,29.94,10,1,10,0.00
2013-4-7,84.2,63.3,45.3,46.0,34.7,25.4,78,38,16,29.94,29.94,10,1,11,0.00
2013-4-8,90.1,69.0,53.8,54.7,40.2,27.0,86,42,13,29.94,29.94,10,1,10,0.00
2013-4-9,95.4,72.3,57.9,55.3,44.0,30.0,79,43,12,29.94,29.94,7,1,8,0.79
2013-4-10,94.1,73.3,61.0,55.5,47.4,31.0,79,47,11,29.94,29.94,11,2,11,0.00
2013-4-19,64.9,60.0,52.2,59.0,53.5,43.0,83,79,65,29.98,29.29,11,2,11,0.08
2013-4-20,75.2,56.3,44.2,44.7,31.3,16.8,82,47,13,30.24,29.98,12,2,12,0.00
2013-4-21,79.5,59.1,42.6,41.3,30.7,18.6,84,42,12,30.36,30.24,11,1,11,0.00
2013-4-22,77.5,60.4,51.4,33.8,25.9,18.5,46,29,13,30.33,30.18,13,2,13,0.00
2013-4-23,84.6,61.0,44.1,41.6,32.7,25.6,67,38,13,30.24,30.09,10,1,10,0.00
2013-4-24,85.6,68.0,55.9,52.0,44.6,35.4,84,49,19,30.18,30.03,13,2,13,0.00
2013-4-25,84.2,70.4,57.4,54.8,41.6,24.4,69,40,14,30.24,30.09,11,2,12,0.00
2013-4-26,86.7,65.3,48.7,43.2,32.6,23.0,57,32,13,30.39,30.24,8,1,8,0.00
2013-4-27,76.6,64.0,54.7,51.8,43.0,35.2,78,48,30,30.36,30.21,8,1,8,0.04
2013-4-28,77.5,64.8,57.6,60.9,53.0,41.2,93,68,42,30.21,30.01,12,1,12,1.81
2013-4-29,78.3,66.3,61.0,64.8,57.8,43.8,93,77,33,30.06,29.95,6,1,8,0.28
2013-4-30,89.6,69.3,57.0,62.0,51.6,39.1,90,61,18,30.12,29.98,8,0,8,0.00
2013-5-1,75.0,65.5,58.8,57.0,48.9,40.2,87,58,31,30.21,30.12,11,1,11,0.00
2013-5-2,75.9,66.6,62.2,57.2,50.9,43.3,78,58,33,30.21,30.12,9,1,9,0.00
2013-5-3,72.9,63.7,58.8,55.1,49.5,43.7,83,61,40,30.15,30.03,8,1,8,0.00
2013-5-4,62.6,59.7,54.0,57.5,47.6,36.5,90,66,40,30.03,29.86,9,0,11,0.51
2013-5-5,79.7,64.1,58.3,60.8,51.9,30.8,91,70,21,29.86,29.77,9,0,10,0.91
2013-5-6,72.1,59.9,50.9,49.3,38.2,28.4,84,49,22,29.95,29.83,12,2,12,0.00
2013-5-7,76.8,62.6,52.2,50.9,38.8,27.6,80,46,18,29.89,29.89,13,2,13,0.00
2013-5-8,85.5,68.3,54.7,47.4,39.4,27.0,74,40,13,29.89,29.89,13,2,13,0.00
2013-5-9,92.1,73.5,59.4,52.1,43.0,29.6,72,38,12,29.89,29.89,10,2,10,0.00
2013-5-10,89.8,75.1,60.6,56.7,45.1,34.5,77,39,15,29.89,29.89,11,1,12,0.00
2013-5-11,85.8,73.6,63.3,56.2,50.4,42.3,71,46,24,29.89,29.89,11,2,11,0.00
2013-5-12,83.8,70.7,59.0,58.6,39.0,15.8,81,39,11,29.89,29.89,13,3,13,0.00
2013-5-13,81.5,63.5,49.3,32.1,24.2,16.8,51,24,12,29.89,29.89,11,2,11,0.00
2013-5-14,86.7,65.8,47.1,38.2,28.4,20.5,65,28,11,29.89,29.89,10,1,10,0.00
2013-5-15,96.4,77.0,63.1,43.6,36.9,30.6,38,25,11,29.89,29.89,14,3,14,0.00
2013-5-16,91.4,76.6,67.3,50.0,44.2,34.5,49,33,15,29.89,29.89,9,2,9,0.00
2013-5-17,92.1,75.9,62.6,56.9,46.7,35.6,72,40,14,29.89,29.89,8,1,9,0.00
2013-5-18,89.2,75.1,67.3,61.0,52.4,40.5,68,47,19,29.89,29.89,8,1,8,0.00
2013-5-19,84.4,74.1,68.9,64.2,59.2,50.8,81,62,33,29.89,29.89,8,1,8,0.00
2013-5-20,91.8,76.8,68.2,66.7,59.1,46.3,87,60,22,29.89,29.89,6,1,6,0.00
2013-5-21,97.5,76.4,67.8,68.3,57.3,40.5,88,58,16,29.89,29.89,8,1,8,0.00
2013-5-22,92.5,76.8,65.5,65.6,56.2,43.3,88,54,20,29.89,29.89,10,1,10,0.00
2013-5-23,91.6,77.4,68.0,65.8,53.6,34.9,88,49,15,29.89,29.89,12,2,12,0.12
2013-5-24,89.2,73.6,63.1,46.4,35.3,19.4,54,28,10,29.89,29.89,19,4,20,0.00
2013-5-25,86.2,67.9,50.9,38.3,29.7,22.0,54,27,11,29.89,29.89,11,1,11,0.00
2013-5-26,88.7,71.3,57.0,45.5,36.5,26.0,61,32,13,29.89,29.89,13,1,13,0.00
2013-5-27,94.8,76.5,61.2,50.2,40.9,30.3,63,33,11,29.89,29.89,11,1,11,0.00
2013-5-28,98.1,78.9,63.9,59.6,47.4,37.4,77,39,13,29.89,29.89,9,1,9,0.00
2013-6-4,78.6,74.1,71.8,60.1,59.0,57.7,66,59,49,0.00,0.00,6,1,6,0.00
2013-6-5,86.4,75.5,71.4,69.9,64.9,58.6,84,71,40,0.00,0.00,7,0,7,0.47
2013-6-6,80.2,73.5,70.3,69.9,66.9,62.2,91,80,59,0.00,0.00,9,1,9,1.14
2013-6-7,91.2,76.2,68.9,73.0,61.2,44.1,94,67,23,0.00,0.00,15,4,15,1.73
2013-6-8,93.4,78.0,68.7,67.3,57.7,43.0,90,57,19,0.00,0.00,9,1,9,0.00
2013-6-9,93.7,76.5,70.3,71.3,65.0,54.3,89,70,27,0.00,0.00,8,0,8,1.73
2013-6-10,87.1,75.2,70.3,72.8,68.8,58.3,90,81,42,0.00,0.00,16,1,16,1.42
2013-6-11,99.0,81.8,70.0,69.4,61.3,44.2,90,57,18,0.00,0.00,11,2,11,0.00
2013-6-12,103.5,86.2,72.9,71.6,59.4,38.8,86,48,12,0.00,0.00,10,1,10,0.00
2013-6-13,98.2,86.3,76.5,68.7,58.2,44.4,76,43,17,29.82,0.00,17,3,17,0.00
2013-6-14,95.4,80.3,71.4,65.6,47.9,30.3,81,38,11,30.03,29.79,13,2,13,0.00
2013-6-15,99.0,78.8,64.2,56.8,45.7,30.7,68,37,10,30.14,30.03,9,0,9,0.00
2013-6-16,99.0,80.4,66.9,61.4,51.8,41.2,71,41,16,30.17,30.06,9,1,9,0.00
2013-6-17,93.4,78.3,72.0,69.9,59.7,49.3,88,55,25,30.11,29.97,8,1,11,0.59
2013-6-18,90.1,77.5,70.7,70.2,64.9,53.8,89,68,30,30.03,29.88,11,2,16,0.08
2013-6-19,86.5,78.0,72.1,70.0,63.7,57.0,87,64,38,30.09,29.91,9,1,10,0.00
2013-6-20,97.0,78.9,66.6,66.3,51.8,36.4,88,47,14,30.20,30.09,8,1,10,0.00
2013-6-21,95.0,77.8,66.0,61.3,49.4,35.6,80,43,14,30.23,30.17,10,2,15,0.00
2013-6-22,97.0,78.2,66.7,67.8,53.6,42.0,91,49,16,30.20,30.11,10,2,11,2.40
2013-6-23,97.9,78.2,68.7,74.3,63.7,46.3,91,66,18,30.20,30.14,8,0,8,0.43
2013-6-24,95.0,80.6,72.0,72.1,62.2,45.3,88,59,20,30.23,30.14,11,1,11,0.16
2013-6-25,95.0,79.2,70.5,69.1,61.8,49.8,88,59,22,30.20,30.06,10,1,10,0.00
2013-6-26,93.2,78.8,72.0,69.7,65.8,54.0,88,67,29,30.09,29.97,10,1,10,0.31
2013-6-27,95.7,82.8,74.8,70.7,63.8,54.1,86,57,27,30.00,29.82,17,3,17,0.00
2013-6-28,100.9,83.0,72.5,67.7,60.6,47.8,85,52,18,29.85,29.67,13,3,13,0.00
2013-6-29,91.9,79.8,73.0,66.3,61.5,55.0,79,56,32,29.76,29.70,13,2,13,0.00
2013-6-30,93.0,77.5,69.6,70.9,65.7,53.2,90,71,29,29.85,29.73,12,1,14,0.31
2013-7-1,90.3,78.2,70.9,69.3,64.0,52.9,90,66,31,29.97,29.82,9,1,9,0.24
2013-7-2,91.2,77.7,72.9,72.5,67.1,59.3,86,71,35,30.14,29.97,8,0,9,0.39
2013-7-3,90.5,77.1,72.1,73.2,68.0,55.8,89,76,34,30.20,30.11,6,0,6,0.35
2013-7-4,88.7,77.2,70.3,76.3,66.4,54.8,90,72,40,30.20,30.11,10,1,10,0.79
2013-7-5,93.7,79.0,71.2,71.4,65.2,52.3,89,66,26,30.23,30.17,11,0,11,0.31
2013-7-6,92.8,79.0,73.2,72.5,68.2,56.1,88,72,31,30.23,30.11,8,1,11,0.47
2013-7-7,96.3,80.4,73.6,74.1,66.6,53.1,90,67,26,30.20,30.09,9,0,9,0.04
2013-7-8,98.6,80.5,72.5,73.5,64.0,46.3,90,63,19,30.20,30.14,9,1,9,0.43
2013-7-9,100.9,82.5,73.4,73.2,64.8,53.1,87,60,22,30.20,30.09,8,0,8,0.08
2013-7-10,90.0,79.0,72.0,73.6,67.3,54.2,89,70,32,30.14,30.00,10,1,10,3.19
2013-8-8,85.8,82.7,80.2,65.6,60.9,57.0,61,48,38,30.06,30.03,4,0,4,3.19
2013-8-9,94.6,82.2,76.3,75.1,68.6,55.3,85,66,29,30.11,30.03,8,1,8,0.12
2013-8-10,100.6,84.4,74.8,72.0,63.1,45.3,87,55,18,30.14,30.06,8,1,8,0.00
2013-8-11,100.0,85.1,74.1,71.1,60.4,44.7,87,50,16,30.17,30.09,10,1,10,0.00
2013-8-12,99.7,83.3,76.1,74.1,65.5,46.7,85,59,17,30.11,30.00,11,1,11,0.24
2013-8-13,97.0,83.6,74.1,73.0,62.8,47.5,89,56,19,30.03,29.88,14,2,14,0.04
2013-8-14,84.9,78.1,72.1,69.7,63.1,53.5,82,62,38,30.06,29.88,8,1,11,0.00
2013-8-15,72.5,68.8,64.8,67.9,62.8,57.6,90,81,64,30.11,30.03,5,0,8,1.02
2013-8-16,68.7,67.1,65.7,65.5,63.7,60.9,92,89,79,30.14,30.06,8,0,8,1.93
2013-8-17,71.6,68.3,65.8,68.3,64.9,63.5,92,89,81,30.17,30.09,6,0,6,0.31
2013-8-18,92.3,75.8,69.8,70.1,65.3,53.2,90,74,29,30.20,30.11,10,0,10,3.19
2013-8-19,84.0,75.2,70.3,72.3,67.9,60.8,91,79,48,30.20,30.09,13,1,13,0.39
2013-8-20,88.0,76.9,73.0,75.7,68.6,58.1,90,77,40,30.20,30.09,8,1,8,1.61
2013-8-21,95.2,78.6,72.9,73.0,66.5,53.1,90,71,27,30.26,30.14,11,0,11,0.00
2013-8-22,98.1,81.8,71.1,74.8,58.6,41.5,90,54,16,30.17,30.06,10,1,10,0.00
2013-8-23,97.2,80.9,71.8,67.4,61.8,46.5,85,56,20,30.09,29.97,10,1,10,0.00
2013-8-24,84.4,75.6,70.9,67.9,61.3,51.5,86,64,34,30.26,30.06,9,1,9,0.00
2013-8-25,88.9,74.4,63.7,63.6,50.1,34.9,87,50,18,30.35,30.26,13,1,13,0.00
2013-8-26,68.5,66.7,65.5,55.8,54.0,52.3,71,64,57,30.32,30.17,0,0,0,0.00
2013-8-27,95.9,75.7,62.2,62.5,53.2,40.7,84,52,16,30.17,30.03,7,0,7,0.00
2013-8-28,98.1,80.6,68.0,65.1,56.6,43.0,81,50,17,30.06,29.97,6,0,8,0.00
2013-8-29,98.8,83.5,73.0,70.0,61.5,50.5,81,52,21,30.00,29.91,8,1,9,0.00
2013-8-30,93.6,82.0,75.6,71.5,63.6,54.5,79,56,28,30.06,29.94,6,0,8,0.00
2013-8-31,95.7,82.1,73.4,72.0,65.6,54.3,86,61,27,30.00,29.88,5,0,8,0.00
2013-9-1,97.9,83.9,75.2,72.1,62.1,44.8,88,54,18,29.97,29.85,10,1,10,0.00
2013-9-2,96.1,81.6,72.5,67.4,62.2,48.1,79,55,22,29.97,29.85,9,1,9,0.00
2013-9-3,96.8,81.8,72.9,68.6,62.4,51.3,80,55,23,30.00,29.88,10,2,10,0.00
2013-9-4,97.7,81.4,71.1,71.4,59.4,42.1,90,55,16,30.09,29.97,0,0,0,0.00
2013-9-5,97.0,81.3,71.2,70.5,57.5,39.4,88,52,16,30.14,30.06,9,1,9,0.00
2013-9-6,94.3,78.7,69.8,66.0,55.9,40.9,86,52,17,30.14,30.06,10,1,12,0.00
2013-9-7,94.5,76.9,65.7,61.8,54.0,40.4,81,52,16,30.11,30.00,9,1,9,0.00
2013-9-8,98.1,78.9,67.1,64.8,55.6,41.5,81,51,16,30.03,29.94,10,1,10,0.00
2013-9-9,100.9,81.7,69.3,67.4,55.2,31.9,85,49,10,30.14,30.00,6,0,6,0.00
2013-9-10,100.9,81.4,69.8,69.0,55.8,37.9,87,50,12,30.26,30.14,6,0,8,0.00
2013-9-11,98.1,78.2,66.9,66.2,55.2,31.1,85,53,11,30.23,30.09,6,0,6,0.00
2013-9-12,97.9,78.5,68.4,71.7,59.0,42.5,90,60,16,30.11,29.91,22,1,22,0.55
2013-9-13,95.7,79.3,71.8,70.5,57.3,40.8,91,54,16,29.91,29.85,10,1,10,0.00
2013-9-14,91.8,73.7,63.1,54.9,44.7,39.4,61,37,17,29.85,29.85,11,2,11,0.00
2013-9-15,99.3,78.6,65.8,65.2,55.3,42.5,75,50,16,29.85,29.85,6,0,6,0.00
2013-9-16,93.2,80.7,74.7,74.3,62.9,45.3,88,60,22,29.85,29.85,11,1,11,0.12
2013-9-17,87.4,74.8,67.8,69.3,53.1,38.1,89,51,19,29.85,29.85,10,1,10,0.16
2013-9-18,84.9,70.4,62.1,54.8,46.2,35.6,68,45,19,29.85,29.85,8,1,9,0.00
2013-9-19,92.3,72.2,60.4,58.2,49.3,35.7,86,51,17,29.85,29.85,8,1,8,0.00
2013-9-20,95.5,76.3,64.8,64.9,53.1,40.4,87,50,16,29.85,29.85,4,0,4,0.00
2013-9-21,86.7,75.6,68.5,69.7,61.4,52.6,88,65,33,29.85,29.85,10,2,10,0.43
2013-9-22,90.5,72.4,62.8,68.0,51.4,28.1,90,56,13,29.85,29.85,11,1,11,0.00
2013-9-23,91.2,70.3,58.6,58.6,47.5,34.2,84,51,15,29.85,29.85,8,1,8,0.00
2013-9-24,86.4,72.7,63.7,55.9,49.4,40.1,69,47,20,29.85,29.85,4,0,6,0.00
2013-9-25,78.1,69.8,64.8,63.3,55.5,43.7,91,63,31,29.85,29.85,8,0,8,0.39
2013-9-26,81.9,69.1,63.5,62.4,53.2,36.2,92,63,21,29.85,29.85,13,2,13,0.00
2013-9-27,90.0,66.0,57.6,56.0,47.7,27.8,88,59,13,30.16,29.53,11,2,13,0.00
2013-9-28,83.3,65.7,54.9,53.0,43.2,31.2,86,50,17,30.24,30.13,12,1,14,0.00
2013-9-29,87.6,66.0,55.8,51.9,46.2,34.6,80,53,18,30.16,30.04,8,0,9,0.00
2013-9-30,86.7,65.8,54.9,55.9,46.2,31.1,88,56,16,30.13,30.04,8,0,8,0.00
2013-10-1,94.5,68.8,56.7,59.1,48.4,34.5,88,55,15,30.19,30.07,8,0,8,0.00
2013-10-2,95.9,71.2,58.5,58.3,49.6,34.5,87,54,14,30.19,30.10,6,0,8,0.00
2013-10-3,102.4,73.9,60.6,62.0,48.1,30.3,85,48,10,30.19,30.10,5,0,6,0.00
2013-10-4,99.3,73.5,62.2,65.5,52.4,32.0,86,55,11,30.19,30.10,6,0,6,0.00
2013-10-5,104.5,75.4,62.2,64.9,51.9,32.8,87,52,9,30.16,30.04,7,0,7,0.00
2013-10-6,102.6,75.6,63.5,68.6,56.5,38.5,89,59,12,30.07,29.92,12,0,12,0.00
2013-10-7,81.1,75.8,68.0,72.2,67.1,60.2,90,76,50,29.98,29.86,7,0,7,1.65
2013-10-8,69.4,62.6,58.1,66.7,52.1,48.1,92,70,58,30.16,29.95,16,2,16,0.08
2013-10-9,86.9,64.4,57.7,49.2,41.5,24.7,70,49,13,30.22,30.10,13,3,13,0.00
2013-10-10,87.6,64.0,52.2,49.3,41.5,30.4,84,50,17,30.16,30.01,11,2,11,0.00
2013-10-11,98.1,68.5,56.3,55.2,47.1,30.3,88,54,11,30.04,29.95,13,1,13,0.00
2013-10-12,102.9,70.0,57.9,59.5,50.0,30.6,87,56,10,30.10,29.98,8,1,10,0.00
2013-10-13,80.4,69.9,64.9,60.0,56.1,47.5,81,63,33,30.19,30.10,10,1,10,0.00
2013-10-14,72.5,66.8,63.9,60.5,58.4,52.3,86,75,50,30.22,30.16,10,1,10,0.00
2013-10-15,81.3,67.7,61.9,59.3,50.5,37.2,80,58,22,30.19,30.07,10,1,10,0.00
2013-10-16,89.2,68.1,57.7,56.0,51.2,37.6,88,60,19,30.10,29.98,8,0,8,0.00
2013-10-17,86.4,72.6,62.6,61.9,55.8,44.1,87,60,24,30.01,29.92,10,1,11,0.00
2013-10-18,88.2,72.2,69.8,66.3,60.7,43.5,88,71,23,30.04,29.92,0,0,0,0.00
2013-10-19,76.1,68.9,62.8,60.8,48.8,35.8,74,52,25,30.01,29.92,10,0,10,0.00
2013-10-20,93.7,63.7,53.6,52.0,42.4,25.7,90,54,12,30.10,29.98,7,0,7,0.00
2013-10-21,74.8,61.5,52.5,51.9,46.3,36.4,86,61,25,30.16,30.04,6,0,6,0.00
2013-10-22,70.5,64.3,60.6,57.6,52.8,45.7,85,68,42,30.07,29.86,5,0,5,0.00
2013-10-23,84.4,62.6,49.6,59.4,38.2,15.8,90,50,12,30.10,29.83,17,3,17,0.00
2013-10-24,87.4,53.9,41.2,34.0,26.8,16.8,69,41,11,30.24,30.10,8,1,8,0.00
2013-10-25,76.8,50.9,41.0,36.5,28.4,12.1,69,46,13,30.36,30.16,11,1,13,0.00
2013-10-26,86.4,48.7,39.4,30.1,24.1,15.2,58,44,11,30.36,30.16,8,1,8,0.00
2013-10-27,85.8,58.7,45.5,45.0,33.4,26.1,57,41,16,30.19,30.10,9,1,11,0.00
2013-10-28,75.7,64.3,56.7,54.8,46.3,33.7,81,56,23,30.30,30.16,6,0,6,0.00
2013-10-29,83.3,65.6,64.6,47.1,45.8,33.9,53,50,19,30.36,30.27,8,1,8,0.00
2013-10-30,95.9,72.7,65.5,44.7,40.7,29.1,47,34,11,30.33,30.19,8,1,8,0.00
2013-10-31,82.2,77.8,72.5,57.5,44.4,36.2,59,33,21,30.22,29.98,14,1,14,0.00
2013-11-1,73.8,69.1,64.8,63.0,59.6,56.3,91,74,59,29.98,29.77,12,2,12,0.98
2013-11-2,64.8,64.8,64.8,62.1,62.1,62.1,91,91,91,30.04,29.80,13,2,13,0.00
2013-11-3,64.8,64.8,64.8,62.1,62.1,62.1,91,91,91,30.33,30.04,11,1,11,0.00
2013-11-4,64.8,64.8,64.8,62.1,62.1,62.1,91,91,91,30.48,30.33,12,1,12,0.00
2013-11-5,64.8,64.8,64.8,62.1,62.1,62.1,91,91,91,30.51,30.39,11,2,11,0.00
2013-11-6,64.8,64.8,64.8,62.1,62.1,62.1,91,91,91,30.39,30.16,8,0,8,0.00
2013-11-7,64.8,64.8,64.8,62.1,62.1,62.1,91,91,91,30.16,30.01,11,2,11,0.00
2013-11-8,64.8,64.8,64.8,62.1,62.1,62.1,91,91,91,30.36,30.16,11,2,11,0.00
2013-11-9,64.8,64.8,64.8,62.1,62.1,62.1,91,91,91,30.39,30.24,6,0,6,0.00
2013-11-10,64.8,64.8,64.8,62.1,62.1,62.1,91,91,91,30.27,30.19,6,0,6,0.00
2013-11-11,64.8,64.8,64.8,62.1,62.1,62.1,91,91,91,30.33,30.19,10,1,10,0.00
2013-11-12,64.8,64.8,64.8,62.1,62.1,62.1,91,91,91,30.45,30.07,22,3,22,0.00
2013-11-13,64.8,64.8,64.8,62.1,62.1,62.1,91,91,91,30.60,30.42,17,3,17,0.00
2013-11-14,64.8,64.8,64.8,62.1,62.1,62.1,91,91,91,30.54,30.36,6,0,6,0.00
2013-11-15,64.8,64.8,64.8,62.1,62.1,62.1,91,91,91,30.36,30.19,4,0,4,0.00
2013-11-16,64.8,64.8,64.8,62.1,62.1,62.1,91,91,91,30.27,30.16,7,0,7,0.00
2013-11-17,64.8,64.8,64.8,62.1,62.1,62.1,91,91,91,30.19,29.98,6,0,7,0.00
2013-11-18,64.8,64.8,64.8,62.1,62.1,62.1,91,91,91,30.01,29.89,17,2,17,0.00
2013-11-19,64.8,64.8,64.8,62.1,62.1,62.1,91,91,91,30.22,30.01,10,2,11,0.00
2013-11-20,64.8,64.8,64.8,62.1,62.1,62.1,91,91,91,30.36,30.19,12,2,12,0.00
2013-11-21,64.8,64.8,64.8,62.1,62.1,62.1,91,91,91,30.42,30.33,6,0,8,0.20
2013-11-22,64.8,64.8,64.8,62.1,62.1,62.1,91,91,91,30.39,30.19,6,0,6,0.00
2013-11-23,64.8,64.8,64.8,62.1,62.1,62.1,91,91,91,30.22,30.07,10,2,13,0.00
2013-11-24,64.8,64.8,64.8,62.1,62.1,62.1,91,91,91,30.51,30.22,12,2,17,0.00
2013-11-25,64.8,64.8,64.8,62.1,62.1,62.1,91,91,91,30.54,30.27,6,1,8,0.00
2013-11-26,64.8,64.8,64.8,62.1,62.1,62.1,91,91,91,30.27,29.65,8,1,10,1.18
2013-11-27,64.8,64.8,64.8,62.1,62.1,62.1,91,91,91,30.27,29.59,12,2,17,0.20
2013-11-28,64.8,64.8,64.8,62.1,62.1,62.1,91,91,91,30.51,30.27,5,0,6,0.00
2013-11-29,64.8,64.8,64.8,62.1,62.1,62.1,91,91,91,30.57,30.45,6,0,7,0.00
2013-11-30,64.8,64.8,64.8,62.1,62.1,62.1,91,91,91,30.60,30.36,11,1,11,0.00
2013-12-1,64.8,64.8,64.8,62.1,62.1,62.1,91,91,91,30.36,30.13,6,0,6,0.00
2013-12-7,82.9,50.5,0.0,8.6,4.1,0.0,16,13,9,30.37,29.77,10,3,10,0.00
2013-12-8,50.4,47.4,44.2,14.9,11.0,4.1,29,23,16,30.40,30.28,8,2,8,0.16
2013-12-9,55.9,49.4,43.7,27.5,20.4,13.1,37,32,28,30.28,30.07,6,0,6,0.28
2013-12-10,69.3,55.1,41.0,47.4,17.1,-1.7,52,25,10,30.37,29.98,22,2,22,0.04
2013-12-11,70.5,44.6,34.0,9.8,-0.5,-8.3,17,15,10,30.46,30.34,8,0,9,0.00
2013-12-12,65.8,43.8,36.0,8.4,-0.8,-8.2,17,15,10,30.46,30.31,11,1,11,0.00
2013-12-13,73.8,45.5,32.2,10.9,-0.6,-9.8,18,14,9,30.40,30.22,6,0,6,0.00
2013-12-14,60.8,53.4,48.0,34.1,16.1,1.1,37,24,13,30.25,29.84,13,1,13,1.50
2013-12-15,66.4,50.7,38.1,29.3,10.2,-4.1,38,21,10,30.19,29.84,13,2,13,0.04
2013-12-16,74.7,46.0,33.6,10.7,-0.1,-6.4,18,15,9,30.25,30.16,10,1,10,0.00
2013-12-17,76.1,52.3,40.8,10.6,3.0,-1.9,16,13,8,30.25,30.10,14,3,14,0.04
2013-12-18,69.1,47.7,39.2,9.8,1.2,-3.2,16,14,10,30.34,30.13,10,2,10,0.04
2013-12-19,75.7,48.5,33.8,11.1,0.3,-8.9,17,14,8,30.40,30.25,9,1,9,0.04
2013-12-20,72.7,55.3,44.1,22.0,8.9,0.7,28,16,9,30.28,30.19,10,1,11,0.04
2013-12-21,87.1,66.0,54.3,28.4,15.8,8.5,30,17,6,30.19,30.04,12,2,12,0.04
2013-12-22,78.1,69.8,65.7,39.1,28.7,8.6,35,24,8,30.10,30.04,15,3,15,0.63
2013-12-23,68.9,61.5,48.7,42.8,28.3,1.4,39,29,12,30.19,30.04,10,2,10,1.22
2013-12-24,65.1,44.7,36.7,9.3,1.9,-8.2,29,17,10,30.40,30.19,15,3,15,0.04
2013-12-25,48.7,39.7,31.3,1.5,-4.5,-11.1,16,15,14,30.55,30.37,10,1,10,0.04
2013-12-26,60.1,45.2,39.2,7.3,0.0,-3.2,16,15,12,30.40,30.28,9,0,9,0.08
2013-12-27,63.7,44.0,36.5,7.9,-0.1,-7.5,19,16,11,30.49,30.34,8,1,8,0.00
2013-12-28,54.9,44.0,34.0,17.1,1.6,-6.2,31,17,13,30.43,30.07,9,1,9,0.67
2013-12-29,70.2,51.9,46.0,28.8,15.9,2.7,38,26,9,30.07,29.84,11,3,12,1.30
2013-12-30,58.6,49.9,41.9,14.9,7.9,1.2,31,19,12,30.19,30.01,9,2,10,0.04
2013-12-31,63.9,49.8,42.4,8.5,2.7,-1.6,19,14,11,30.40,30.19,10,2,10,0.00
2014-1-1,53.6,46.6,40.5,13.9,2.6,-2.2,24,16,13,30.40,30.16,3,0,3,0.00
2014-1-2,54.0,48.9,34.3,28.0,14.6,-8.9,37,26,14,30.19,29.75,22,1,24,0.28